Weather observations for the past three days for
Cincinnati W Airport
Metric (Imperial)
Date Time (edt) Wind (kph) Vis. (km) Weather Sky Cond. Temperature (ºC) Relative Humidity Wind Chill (°C) Heat Index (°C) Pressure Precipitation (cm)
Air Dwpt 6 hour altimeter (cm) sea level (mb) 1 hr 3 hr 6 hr
Max. Min.
04 20:15 SW 17 16.09 Fair CLR 22 10 47% 75.39 0.0
04 19:55 SW 15 16.09 Partly Cloudy SCT120 23 10 44% 75.41 0.0
04 19:35 SW 13 G 26 16.09 Partly Cloudy SCT120 23 10 44% 75.41 0.0
04 19:15 SW 20 G 30 16.09 Fair CLR 23 9 41% 75.46 0.0
04 18:55 SW 24 G 31 16.09 Partly Cloudy SCT080 SCT085 24 9 39% 25 75.46 0.0
04 18:35 SW 13 G 26 16.09 Partly Cloudy SCT090 25 9 36% 26 75.46 0.0
04 18:15 SW 13 16.09 Mostly Cloudy SCT070 BKN095 23 11 47% 75.46 0.0
04 17:55 S 13 16.09 Partly Cloudy SCT070 SCT095 23 11 47% 75.46 0.0
04 17:35 S 13 16.09 Partly Cloudy SCT070 SCT085 SCT100 23 10 44% 75.49 0.0
04 17:15 W 11 16.09 Partly Cloudy SCT070 SCT085 24 10 41% 25 75.51 0.0
04 16:55 W 13 16.09 Fair CLR 24 10 41% 25 75.54 0.0
04 16:35 W 19 G 33 16.09 Fair CLR 23 10 44% 75.57 0.0
04 16:15 SW 15 16.09 Fair CLR 24 11 44% 25 75.59 0.0
04 15:55 W 17 G 26 16.09 Partly Cloudy SCT100 23 11 47% 75.59 0.0
04 15:35 W 19 16.09 Fair CLR 23 11 47% 75.62 0.0
04 15:15 SW 15 G 28 16.09 Partly Cloudy SCT100 SCT120 22 12 53% 75.64 0.0
04 14:55 W 9 G 26 16.09 Mostly Cloudy BKN100 BKN120 21 11 53% 75.67 0.0
04 14:35 SW 7 16.09 Mostly Cloudy BKN100 BKN120 20 11 56% 75.67 0.0
04 14:15 SW 9 G 26 16.09 Mostly Cloudy BKN110 20 11 56% 75.67 0.0
04 13:55 SW 15 G 26 16.09 Partly Cloudy SCT120 21 11 53% 75.67 0.0
04 13:35 SW 17 G 30 16.09 Partly Cloudy SCT120 21 11 53% 75.64 0.0
04 13:15 SW 19 G 31 16.09 Fair CLR 22 11 50% 75.64 0.0
04 12:55 SW 17 16.09 Partly Cloudy SCT120 21 12 57% 75.64 0.0
04 12:35 SW 19 16.09 Partly Cloudy SCT110 20 11 56% 75.64 0.0
04 12:15 S 7 16.09 Mostly Cloudy BKN110 19 11 60% 75.67 0.0
04 11:55 SW 6 16.09 Mostly Cloudy BKN120 18 11 64% 75.72 0.0
04 11:35 SW 9 16.09 Partly Cloudy SCT120 18 10 60% 75.69 0.0
04 11:15 SW 7 16.09 Fair CLR 18 10 60% 75.72 0.0
04 10:55 S 9 16.09 Fair CLR 17 10 64% 75.72 0.0
04 10:35 SW 6 16.09 Partly Cloudy SCT120 16 9 63% 75.72 0.0
04 10:15 S 11 16.09 Partly Cloudy SCT110 15 9 68% 75.72 0.0
04 09:55 S 13 16.09 Partly Cloudy SCT120 16 8 59% 75.72 0.0
04 09:35 SW 15 16.09 Fair CLR 15 8 63% 75.74 0.0
04 09:15 SW 9 16.09 Fair CLR 13 8 72% 75.74 0.0
04 08:55 S 9 16.09 Fair CLR 13 7 67% 75.74 0.0
04 08:35 Calm 16.09 Fair CLR 12 7 72% 75.77 0.0
04 08:15 S 7 16.09 Fair CLR 12 7 72% 75.74 0.0
04 07:55 SW 7 16.09 Partly Cloudy SCT090 12 6 67% 75.77 0.0
04 07:35 SW 7 16.09 Overcast SCT080 OVC090 12 6 67% 75.77 0.0
04 07:15 Calm 16.09 Overcast BKN070 OVC090 11 6 72% 75.74 0.0
04 06:55 Calm 16.09 Overcast BKN075 BKN090 OVC110 11 6 72% 75.74 0.0
04 06:35 Calm 16.09 Mostly Cloudy SCT075 BKN090 11 6 72% 75.74 0.0
04 06:15 Calm 16.09 Partly Cloudy SCT090 11 5 67% 75.77 0.0
04 05:55 S 6 16.09 Partly Cloudy SCT090 11 5 67% 75.77 0.0
04 05:35 Calm 16.09 Partly Cloudy SCT100 11 5 67% 75.79 0.0
04 05:15 Calm 16.09 Partly Cloudy SCT085 11 5 67% 75.79 0.0
04 04:55 Calm 16.09 Overcast OVC080 11 5 67% 75.79 0.0
04 04:35 S 6 16.09 Mostly Cloudy BKN090 11 5 67% 75.79 0.0
04 04:15 SE 6 16.09 Mostly Cloudy BKN090 10 5 71% 75.79 0.0
04 03:55 SE 6 16.09 Partly Cloudy SCT100 8 4 76% 75.82 0.0
04 03:35 Calm 16.09 Fair CLR 10 4 67% 75.84 0.0
04 03:15 Calm 16.09 Partly Cloudy SCT080 10 4 67% 75.84 0.0
04 02:55 Calm 16.09 Partly Cloudy SCT080 11 5 67% 75.84 0.0
04 02:35 Calm 16.09 Mostly Cloudy BKN080 10 5 71% 75.87 0.0
04 02:15 Calm 16.09 Mostly Cloudy BKN080 9 5 76% 75.9 0.0
04 01:55 Calm 16.09 Mostly Cloudy BKN080 8 5 82% 75.92 0.0
04 01:35 Calm 16.09 Mostly Cloudy BKN080 8 5 82% 75.92 0.0
04 01:15 Calm 16.09 Partly Cloudy SCT080 8 5 82% 75.95 0.0
04 00:55 Calm 16.09 Partly Cloudy SCT080 SCT095 8 4 76% 75.95 0.0
04 00:35 Calm 16.09 Partly Cloudy SCT085 SCT110 8 4 76% 75.95 0.0
04 00:15 Calm 16.09 Mostly Cloudy SCT085 BKN100 10 5 71% 75.97 0.0
03 23:55 Calm 16.09 Partly Cloudy SCT095 8 5 82% 75.97 0.0
03 23:35 Calm 16.09 Partly Cloudy SCT095 8 4 76% 76 0.0
03 23:15 Calm 16.09 Fair CLR 9 4 71% 76 0.0
03 22:55 Calm 16.09 Partly Cloudy SCT110 11 4 62% 76 0.0
03 22:35 Calm 16.09 Partly Cloudy SCT080 SCT110 12 4 58% 76 0.0
03 22:15 Calm 16.09 Overcast BKN080 OVC110 12 5 63% 76 0.0
03 21:55 Calm 16.09 Overcast SCT090 OVC110 12 4 58% 76 0.0
03 21:35 S 6 16.09 Overcast OVC090 13 3 51% 75.97 0.0
03 21:15 SW 7 16.09 Overcast SCT050 BKN080 OVC090 13 3 51% 75.97 0.0
03 20:55 SW 15 16.09 Overcast SCT070 OVC090 14 3 48% 75.97 0.0
03 20:35 SW 15 16.09 Overcast SCT080 OVC090 15 1 39% 75.97 0.0
03 20:15 SW 11 16.09 Overcast OVC080 15 0 36% 75.97 0.0
03 19:55 SW 13 16.09 Overcast OVC090 15 0 36% 75.97 0.0
03 19:35 SW 15 16.09 Mostly Cloudy BKN090 BKN120 16 0 34% 75.97 0.0
03 19:15 SW 15 16.09 Overcast OVC080 16 0 34% 75.97 0.0
03 18:55 SW 17 16.09 Overcast OVC080 16 0 34% 76.02 0.0
03 18:35 SW 17 16.09 Overcast SCT070 OVC090 16 0 34% 76.05 0.0
03 18:15 SW 19 G 26 16.09 Mostly Cloudy BKN100 BKN120 16 0 34% 76.07 0.0
03 17:55 SW 22 G 33 16.09 Partly Cloudy SCT110 17 0 32% 76.07 0.0
03 17:35 SW 26 G 33 16.09 Fair CLR 17 0 32% 76.1 0.0
03 17:15 SW 17 G 31 16.09 Partly Cloudy SCT110 17 0 32% 76.12 0.0
03 16:55 SW 19 G 28 16.09 Partly Cloudy SCT100 16 0 34% 76.15 0.0
03 16:35 W 19 G 28 16.09 Overcast OVC100 16 0 34% 76.17 0.0
03 16:15 W 15 G 28 16.09 Partly Cloudy SCT110 16 0 34% 76.15 0.0
03 15:55 SW 17 G 26 16.09 Mostly Cloudy BKN110 16 0 34% 76.17 0.0
03 15:35 SW 15 16.09 Overcast OVC110 16 0 34% 76.23 0.0
03 14:55 S 17 G 30 16.09 Partly Cloudy SCT120 16 -1 31% 76.28 0.0
03 14:35 SW 20 G 30 16.09 Overcast OVC120 16 0 34% 76.3 0.0
03 14:15 SW 15 G 28 16.09 Partly Cloudy SCT120 16 0 34% 76.3 0.0
03 13:55 SW 24 G 31 16.09 Fair CLR 16 0 34% 76.33 0.0
03 13:35 S 19 G 30 16.09 Fair CLR 15 0 36% 76.33 0.0
03 13:15 S 20 G 35 16.09 Fair CLR 15 0 36% 76.38 0.0
03 12:55 SW 19 G 30 16.09 Fair CLR 15 0 36% 76.4 0.0
03 12:35 SW 13 16.09 Fair CLR 15 -1 34% 76.43 0.0
03 12:15 W 13 G 28 16.09 Fair CLR 15 0 36% 76.45 0.0
03 11:55 SW 19 16.09 Fair CLR 14 0 39% 76.48 0.0
03 11:35 W 13 16.09 Fair CLR 14 0 39% 76.48 0.0
03 11:15 W 17 16.09 Fair CLR 13 0 41% 76.5 0.0
03 10:35 S 9 16.09 Fair CLR 12 2 51% 76.5 0.0
03 10:15 SW 13 16.09 Fair CLR 11 2 54% 76.5 0.0
03 09:55 SW 9 16.09 Fair CLR 10 2 58% 9 76.5 0.0
03 09:35 S 9 16.09 Fair CLR 8 2 66% 7 76.53 0.0
03 09:15 S 11 16.09 Fair CLR 6 2 76% 4 76.53 0.0
03 08:55 S 9 16.09 Fair CLR 6 2 76% 4 76.53 0.0
03 08:35 S 6 16.09 Fair CLR 5 2 81% 76.53 0.0
03 08:15 S 9 16.09 Fair CLR 3 1 87% 1 76.53 0.0
03 07:55 S 7 16.09 Fair CLR 2 1 93% 0 76.53 0.0
03 07:35 S 6 16.09 Fair CLR 2 1 93% 76.5 0.0
03 07:15 Calm 16.09 Fair CLR 1 1 100% 76.48 0.0
03 06:55 Calm 16.09 Fair CLR 1 1 100% 76.48 0.0
03 06:35 Calm 16.09 Fair CLR 1 0 93% 76.48 0.0
03 06:15 Calm 16.09 Fair CLR 1 0 93% 76.45 0.0
03 05:55 Calm 16.09 Fair CLR 0 0 100% 76.45 0.0
03 05:35 SW 6 16.09 Fair CLR 0 0 100% 76.45 0.0
03 05:15 Calm 16.09 Fair CLR 0 0 100% 76.45 0.0
03 04:55 SW 6 16.09 Fair CLR 0 0 100% 76.45 0.0
03 04:35 Calm 16.09 Fair CLR 0 0 100% 76.45 0.0
03 04:15 Calm 16.09 Fair CLR 0 0 100% 76.43 0.0
03 03:55 Calm 16.09 Fair CLR 1 0 93% 76.43 0.0
03 03:35 Calm 16.09 Fair CLR 1 0 93% 76.43 0.0
03 03:15 Calm 16.09 Fair CLR 1 0 93% 76.43 0.0
03 02:55 Calm 16.09 Fair CLR 1 0 93% 76.43 0.0
03 02:35 Calm 16.09 Fair CLR 1 0 93% 76.45 0.0
03 02:15 Calm 16.09 Fair CLR 1 0 93% 76.45 0.0
03 01:55 Calm 16.09 Fair CLR 1 0 93% 76.48 0.0
03 01:35 Calm 16.09 Fair CLR 1 0 93% 76.48 0.0
03 01:15 Calm 16.09 Fair CLR 2 0 87% 76.45 0.0
03 00:55 Calm 16.09 Fair CLR 2 1 93% 76.45 0.0
03 00:35 Calm 16.09 Fair CLR 2 1 93% 76.45 0.0
03 00:15 Calm 16.09 Fair CLR 3 1 87% 76.45 0.0
02 23:55 Calm 16.09 Fair CLR 3 1 87% 76.45 0.0
02 23:35 Calm 16.09 Fair CLR 3 1 87% 76.48 0.0
02 23:15 Calm 16.09 Fair CLR 3 0 81% 76.48 0.0
02 22:55 Calm 16.09 Fair CLR 3 0 81% 76.48 0.0
02 22:35 Calm 16.09 Fair CLR 3 1 87% 76.45 0.0
02 22:15 Calm 16.09 Fair CLR 5 0 70% 76.45 0.0
02 21:55 Calm 16.09 Fair CLR 5 0 70% 76.43 0.0
02 21:35 Calm 16.09 Fair CLR 5 0 70% 76.4 0.0
02 21:15 Calm 16.09 Fair CLR 7 -1 57% 76.4 0.0
02 20:55 Calm 16.09 Fair CLR 7 -1 57% 76.38 0.0
02 20:35 N 7 16.09 Fair CLR 8 -1 53% 7 76.38 0.0
02 20:15 N 7 16.09 Partly Cloudy SCT070 9 -2 46% 8 76.35 0.0
02 19:55 N 15 16.09 Fair CLR 10 -2 43% 8 76.35 0.0
02 19:35 NW 15 16.09 Fair CLR 10 -2 43% 8 76.33 0.0
02 19:15 N 17 16.09 Partly Cloudy SCT065 SCT075 11 -2 41% 76.33 0.0
02 18:55 N 17 G 35 16.09 Mostly Cloudy BKN065 BKN075 11 -1 44% 76.33 0.0
02 18:35 N 9 16.09 Partly Cloudy SCT075 11 -2 41% 76.3 0.0
02 18:15 N 13 16.09 Partly Cloudy SCT070 SCT080 11 -2 41% 76.3 0.0
02 17:55 N 13 16.09 Mostly Cloudy BKN070 BKN080 11 -2 41% 76.3 0.0
02 17:35 N 15 G 28 16.09 Overcast BKN070 OVC080 11 -2 41% 76.3 0.0
02 17:15 N 9 16.09 Overcast BKN070 OVC080 11 -2 41% 76.3 0.0
02 16:55 NW 20 G 26 16.09 Mostly Cloudy BKN070 11 -2 41% 76.3 0.0
02 16:35 NW 7 16.09 Partly Cloudy SCT070 12 -2 38% 76.3 0.0
02 16:15 N 13 G 26 16.09 Mostly Cloudy BKN070 11 -3 38% 76.3 0.0
02 15:55 N 15 16.09 Partly Cloudy SCT070 12 -1 41% 76.3 0.0
02 15:35 N 13 16.09 Partly Cloudy SCT070 11 -2 41% 76.33 0.0
02 15:15 NW 11 G 26 16.09 Mostly Cloudy BKN070 11 -2 41% 76.33 0.0
02 14:55 N 17 G 28 16.09 Partly Cloudy SCT070 11 -2 41% 76.33 0.0
02 14:35 NW 19 G 28 16.09 Mostly Cloudy BKN070 11 -2 41% 76.35 0.0
02 14:15 NW 20 G 30 16.09 Mostly Cloudy BKN070 11 -2 41% 76.35 0.0
02 13:55 N 17 16.09 Mostly Cloudy BKN060 12 -1 41% 76.35 0.0
02 13:35 N 20 G 28 16.09 Mostly Cloudy BKN060 11 -1 44% 76.35 0.0
02 13:15 N 7 G 30 16.09 Mostly Cloudy BKN060 11 -1 44% 76.38 0.0
02 12:55 W 9 G 31 16.09 Partly Cloudy SCT060 11 -1 44% 76.38 0.0
02 12:35 N 9 G 28 16.09 Partly Cloudy SCT060 11 0 47% 76.4 0.0
02 12:15 N 7 G 26 16.09 Partly Cloudy SCT055 SCT065 11 0 47% 76.4 0.0
02 11:55 N 19 16.09 Partly Cloudy SCT055 10 0 50% 8 76.43 0.0
02 11:35 N 9 16.09 Fair CLR 10 0 50% 9 76.43 0.0
02 11:15 N 13 16.09 Fair CLR 10 0 50% 8 76.43 0.0
02 10:55 N 13 16.09 Partly Cloudy SCT070 9 0 54% 7 76.43 0.0
02 10:35 N 6 16.09 Mostly Cloudy SCT060 BKN070 8 0 57% 76.45 0.0
02 10:15 N 11 16.09 Overcast SCT034 SCT050 OVC060 7 0 61% 5 76.45 0.0
02 09:55 N 7 16.09 Overcast BKN050 OVC070 6 0 66% 5 76.45 0.0
02 09:35 N 6 16.09 Overcast SCT055 OVC070 6 1 71% 76.45 0.0
02 09:15 NE 9 16.09 Overcast SCT050 SCT070 OVC085 6 1 71% 4 76.43 0.0
02 08:55 NE 11 16.09 Overcast OVC085 6 1 71% 4 76.43 0.0
02 08:35 N 9 16.09 Overcast OVC085 5 1 76% 3 76.43 0.0
02 08:15 Calm 16.09 Mostly Cloudy BKN085 4 3 93% 76.4 0.0
02 07:55 Calm 16.09 Mostly Cloudy BKN085 2 2 100% 76.4 0.0
02 07:35 Calm 16.09 Mostly Cloudy BKN085 2 1 93% 76.38 0.0
02 07:15 Calm 16.09 Partly Cloudy SCT050 SCT085 1 1 100% 76.38 0.0
02 06:55 Calm 16.09 Fair CLR 1 1 100% 76.38 0.0
02 06:35 Calm 16.09 Fair CLR 2 1 93% 76.33 0.0
02 06:15 Calm 16.09 Fair CLR 1 1 100% 76.38 0.0
02 05:55 Calm 16.09 Fair CLR 2 1 93% 76.38 0.0
02 05:35 Calm 16.09 Fair CLR 2 1 93% 76.38 0.0
02 05:15 Calm 16.09 Fair CLR 2 2 100% 76.38 0.0
02 04:55 Calm 16.09 Fair CLR 2 2 100% 76.35 0.0
02 04:35 Calm 16.09 Partly Cloudy SCT060 SCT070 2 2 100% 76.38 0.0
02 04:15 Calm 16.09 Mostly Cloudy SCT060 BKN070 3 2 93% 76.35 0.0
02 03:55 Calm 16.09 Mostly Cloudy SCT060 BKN080 3 2 93% 76.33 0.0
02 03:35 Calm 16.09 Mostly Cloudy BKN080 2 2 100% 76.35 0.0
02 03:15 Calm 16.09 Mostly Cloudy BKN080 3 2 93% 76.35 0.0
02 02:55 Calm 16.09 Fair CLR 2 2 100% 76.33 0.0
02 02:35 Calm 16.09 Partly Cloudy SCT080 2 2 100% 76.35 0.0
02 02:15 Calm 16.09 Overcast OVC080 3 2 93% 76.38 0.0
02 01:55 Calm 16.09 Mostly Cloudy BKN080 3 2 93% 76.38 0.0
02 01:35 Calm 16.09 Fair CLR 3 2 93% 76.38 0.0
02 01:15 Calm 16.09 Fair CLR 3 2 93% 76.38 0.0
02 00:55 Calm 16.09 Partly Cloudy SCT075 3 2 93% 76.38 0.0
02 00:35 Calm 16.09 Fair CLR 3 2 93% 76.38 0.0
02 00:15 Calm 16.09 Fair CLR 4 3 93% 76.38 0.0
01 23:55 Calm 16.09 Fair CLR 5 3 87% 76.38 0.0
01 23:35 Calm 16.09 Fair CLR 5 3 87% 76.38 0.0
01 23:15 Calm 16.09 Fair CLR 6 3 81% 76.38 0.0
01 22:55 Calm 16.09 Fair CLR 6 3 81% 76.38 0.0
01 22:35 Calm 16.09 Fair CLR 6 2 76% 76.35 0.0
01 22:15 Calm 16.09 Fair CLR 6 3 81% 76.35 0.0
01 21:55 Calm 16.09 Fair CLR 7 2 71% 76.33 0.0
01 21:35 Calm 16.09 Partly Cloudy SCT085 8 2 66% 76.3 0.0
01 21:15 Calm 16.09 Partly Cloudy SCT075 9 1 58% 76.28 0.0
01 20:55 Calm 16.09 Partly Cloudy SCT085 SCT090 9 1 58% 76.25 0.0
01 20:35 N 6 16.09 Mostly Cloudy BKN085 10 1 54% 76.2 0.0
Date Time (edt) Wind (kph) Vis. (km) Weather Sky Cond. Air Dwpt Max. Min. Relative Humidity Wind Chill (°C) Heat Index (°C) altimeter (cm) sea level (mb) 1 hr 3 hr 6 hr
6 hour
Temperature (ºC) Pressure Precipitation (cm)